createdAt,value
2018-02-12T00:00:19.179Z,82.23
2018-02-12T00:01:21.039Z,82.18
2018-02-12T00:02:22.915Z,82.37
2018-02-12T00:03:24.723Z,82.85
2018-02-12T00:04:26.516Z,83.61
2018-02-12T00:05:28.382Z,83.51
2018-02-12T00:06:30.236Z,83.80
2018-02-12T00:07:32.086Z,84.17
2018-02-12T00:08:46.252Z,83.89
2018-02-12T00:09:48.108Z,84.27
2018-02-12T00:10:49.966Z,84.65
2018-02-12T00:11:51.839Z,85.13
2018-02-12T00:12:53.621Z,85.13
2018-02-12T00:13:55.412Z,85.41
2018-02-12T00:14:57.278Z,85.97
2018-02-12T00:15:59.130Z,86.45
2018-02-12T00:17:00.981Z,86.35
2018-02-12T00:18:15.101Z,86.55
2018-02-12T00:19:16.976Z,86.55
2018-02-12T00:20:18.846Z,86.55
2018-02-12T00:21:20.703Z,87.40
2018-02-12T00:22:22.489Z,87.77
2018-02-12T00:23:24.276Z,87.54
2018-02-12T00:24:26.123Z,87.64
2018-02-12T00:25:27.975Z,88.16
2018-02-12T00:26:29.828Z,88.30
2018-02-12T00:27:43.967Z,88.21
2018-02-12T00:28:45.838Z,88.30
2018-02-12T00:29:47.691Z,88.59
2018-02-12T00:30:49.567Z,88.87
2018-02-12T00:31:51.372Z,88.59
2018-02-12T00:32:53.182Z,88.68
2018-02-12T00:33:55.046Z,89.06
2018-02-12T00:34:56.904Z,89.06
2018-02-12T00:35:58.768Z,89.06
2018-02-12T00:37:12.890Z,89.06
2018-02-12T00:38:14.745Z,89.34
2018-02-12T00:39:16.598Z,89.72
2018-02-12T00:40:18.472Z,89.72
2018-02-12T00:41:20.279Z,89.82
2018-02-12T00:42:22.087Z,89.44
2018-02-12T00:43:23.938Z,89.82
2018-02-12T00:44:25.811Z,89.82
2018-02-12T00:45:27.658Z,89.39
2018-02-12T00:46:41.783Z,89.44
2018-02-12T00:47:43.651Z,89.67
2018-02-12T00:48:45.512Z,89.82
2018-02-12T00:49:47.354Z,89.91
2018-02-12T00:50:49.144Z,89.96
2018-02-12T00:51:50.945Z,89.96
2018-02-12T00:52:52.796Z,89.77
2018-02-12T00:53:54.647Z,89.58
2018-02-12T00:54:56.512Z,89.29
2018-02-12T00:56:10.629Z,89.11
2018-02-12T00:57:12.486Z,88.54
2018-02-12T00:58:14.344Z,88.63
2018-02-12T00:59:16.200Z,88.82
2018-02-12T01:00:18.004Z,88.73
2018-02-12T01:01:19.794Z,88.73
2018-02-12T01:02:21.661Z,88.44
2018-02-12T01:03:23.519Z,88.16
2018-02-12T01:04:25.393Z,88.25
2018-02-12T01:05:39.534Z,88.44
2018-02-12T01:06:41.400Z,88.73
2018-02-12T01:07:43.256Z,88.82
2018-02-12T01:08:45.104Z,88.16
2018-02-12T01:09:46.892Z,88.25
2018-02-12T01:10:48.680Z,88.25
2018-02-12T01:11:50.530Z,87.59
2018-02-12T01:12:52.388Z,87.68
2018-02-12T01:13:54.256Z,87.40
2018-02-12T01:15:08.395Z,87.40
2018-02-12T01:16:10.248Z,87.30
2018-02-12T01:17:12.110Z,87.21
2018-02-12T01:18:13.976Z,87.21
2018-02-12T01:19:15.772Z,87.21
2018-02-12T01:20:17.573Z,87.21
2018-02-12T01:21:19.442Z,86.64
2018-02-12T01:22:21.301Z,86.83
2018-02-12T01:23:23.172Z,86.45
2018-02-12T01:24:37.290Z,86.21
2018-02-12T01:25:39.159Z,86.11
2018-02-12T01:26:41.017Z,85.64
2018-02-12T01:27:42.889Z,85.45
2018-02-12T01:28:44.673Z,84.88
2018-02-12T01:29:46.462Z,85.17
2018-02-12T01:30:48.311Z,84.41
2018-02-12T01:31:50.168Z,84.31
2018-02-12T01:32:52.032Z,84.12
2018-02-12T01:34:06.201Z,84.31
2018-02-12T01:35:08.055Z,84.03
2018-02-12T01:36:09.907Z,83.74
2018-02-12T01:37:11.760Z,84.22
2018-02-12T01:38:13.549Z,84.12
2018-02-12T01:39:15.360Z,84.03
2018-02-12T01:40:17.234Z,83.84
2018-02-12T01:41:19.104Z,84.22
2018-02-12T01:42:21.072Z,83.84
2018-02-12T01:43:35.237Z,83.74
2018-02-12T01:44:37.090Z,83.94
2018-02-12T01:45:38.948Z,83.27
2018-02-12T01:46:40.800Z,82.93
2018-02-12T01:47:42.585Z,82.84
2018-02-12T01:48:44.374Z,82.98
2018-02-12T01:49:46.241Z,82.36
2018-02-12T01:50:48.100Z,82.65
2018-02-12T01:51:49.971Z,82.08
2018-02-12T01:53:04.130Z,82.17
2018-02-12T01:54:05.989Z,81.88
2018-02-12T01:55:07.866Z,82.46
2018-02-12T01:56:09.737Z,81.51
2018-02-12T01:57:11.525Z,82.08
2018-02-12T01:58:13.317Z,81.70
2018-02-12T01:59:15.188Z,81.70
2018-02-12T02:00:17.064Z,81.60
2018-02-12T02:01:18.911Z,81.04
2018-02-12T02:02:33.054Z,81.13
2018-02-12T02:03:34.919Z,80.84
2018-02-12T02:04:36.793Z,80.65
2018-02-12T02:05:38.665Z,81.32
2018-02-12T02:06:40.449Z,81.04
2018-02-12T02:07:42.239Z,80.56
2018-02-12T02:08:44.093Z,81.23
2018-02-12T02:09:45.944Z,80.75
2018-02-12T02:10:47.815Z,80.46
2018-02-12T02:12:01.933Z,80.75
2018-02-12T02:13:03.790Z,80.56
2018-02-12T02:14:05.653Z,79.76
2018-02-12T02:15:07.505Z,80.71
2018-02-12T02:16:09.303Z,80.33
2018-02-12T02:17:11.087Z,80.43
2018-02-12T02:18:12.936Z,80.99
2018-02-12T02:19:14.787Z,81.09
2018-02-12T02:20:16.665Z,80.99
2018-02-12T02:21:30.798Z,80.52
2018-02-12T02:22:32.667Z,80.71
2018-02-12T02:23:34.519Z,80.18
2018-02-12T02:24:36.374Z,80.37
2018-02-12T02:25:38.184Z,80.18
2018-02-12T02:26:39.993Z,79.99
2018-02-12T02:27:41.826Z,80.08
2018-02-12T02:28:43.628Z,80.27
2018-02-12T02:29:45.441Z,79.71
2018-02-12T02:30:59.578Z,79.57
2018-02-12T02:32:01.436Z,79.52
2018-02-12T02:33:03.298Z,79.57
2018-02-12T02:34:05.270Z,80.24
2018-02-12T02:35:07.058Z,80.14
2018-02-12T02:36:08.857Z,80.14
2018-02-12T02:37:10.705Z,79.95
2018-02-12T02:38:12.554Z,80.43
2018-02-12T02:39:14.407Z,80.14
2018-02-12T02:40:28.544Z,80.43
2018-02-12T02:41:30.406Z,80.33
2018-02-12T02:42:32.270Z,80.90
2018-02-12T02:43:34.118Z,81.09
2018-02-12T02:44:35.907Z,80.90
2018-02-12T02:45:37.693Z,81.05
2018-02-12T02:46:39.553Z,81.33
2018-02-12T02:47:41.421Z,81.71
2018-02-12T02:48:43.274Z,81.62
2018-02-12T02:49:57.517Z,81.81
2018-02-12T02:50:59.371Z,82.37
2018-02-12T02:52:01.237Z,82.28
2018-02-12T02:53:03.090Z,81.99
2018-02-12T02:54:04.877Z,82.18
2018-02-12T02:55:06.663Z,81.71
2018-02-12T02:56:08.521Z,81.71
2018-02-12T02:57:10.389Z,81.62
2018-02-12T02:58:12.246Z,81.62
2018-02-12T02:59:26.432Z,81.52
2018-02-12T03:00:28.284Z,81.71
2018-02-12T03:01:30.160Z,81.71
2018-02-12T03:02:32.033Z,81.71
2018-02-12T03:03:33.838Z,81.52
2018-02-12T03:04:35.625Z,81.71
2018-02-12T03:05:37.480Z,81.90
2018-02-12T03:06:39.330Z,81.90
2018-02-12T03:07:41.190Z,81.62
2018-02-12T03:08:55.304Z,81.71
2018-02-12T03:09:57.164Z,82.09
2018-02-12T03:10:59.019Z,82.09
2018-02-12T03:12:00.883Z,82.28
2018-02-12T03:13:02.669Z,82.28
2018-02-12T03:14:04.458Z,82.28
2018-02-12T03:15:06.308Z,81.99
2018-02-12T03:16:08.166Z,81.90
2018-02-12T03:17:10.040Z,82.09
2018-02-12T03:18:24.183Z,82.09
2018-02-12T03:19:26.051Z,82.18
2018-02-12T03:20:27.907Z,82.18
2018-02-12T03:21:29.758Z,81.43
2018-02-12T03:22:31.565Z,81.76
2018-02-12T03:23:33.353Z,82.09
2018-02-12T03:24:35.229Z,81.71
2018-02-12T03:25:37.080Z,82.18
2018-02-12T03:26:38.937Z,81.99
2018-02-12T03:27:53.079Z,81.67
2018-02-12T03:28:54.955Z,81.67
2018-02-12T03:29:56.827Z,81.99
2018-02-12T03:30:58.702Z,81.48
2018-02-12T03:32:00.483Z,81.48
2018-02-12T03:33:02.331Z,81.67
2018-02-12T03:34:04.133Z,81.67
2018-02-12T03:35:05.989Z,81.48
2018-02-12T03:36:07.865Z,81.48
2018-02-12T03:37:22.003Z,81.57
2018-02-12T03:38:23.879Z,81.67
2018-02-12T03:39:25.749Z,81.48
2018-02-12T03:40:27.601Z,81.67
2018-02-12T03:41:29.402Z,81.67
2018-02-12T03:42:31.201Z,81.57
2018-02-12T03:43:33.067Z,81.67
2018-02-12T03:44:34.921Z,81.57
2018-02-12T03:45:36.798Z,81.57
2018-02-12T03:46:50.941Z,81.57
2018-02-12T03:47:52.813Z,81.48
2018-02-12T03:48:54.683Z,81.67
2018-02-12T03:49:56.531Z,81.57
2018-02-12T03:50:58.326Z,81.67
2018-02-12T03:52:00.107Z,81.57
2018-02-12T03:53:01.959Z,81.67
2018-02-12T03:54:03.808Z,81.67
2018-02-12T03:55:05.661Z,81.67
2018-02-12T03:56:19.800Z,81.67
2018-02-12T03:57:21.740Z,81.67
2018-02-12T03:58:24.360Z,81.67
2018-02-12T03:59:26.306Z,81.48
2018-02-12T04:00:28.109Z,81.57
2018-02-12T04:01:29.893Z,81.67
2018-02-12T04:02:31.747Z,81.57
2018-02-12T04:03:33.600Z,81.38
2018-02-12T04:04:35.467Z,81.67
2018-02-12T04:05:49.588Z,81.67
2018-02-12T04:06:51.462Z,81.67
2018-02-12T04:07:53.328Z,81.57
2018-02-12T04:08:55.181Z,81.38
2018-02-12T04:09:56.968Z,81.20
2018-02-12T04:10:58.752Z,81.20
2018-02-12T04:12:00.608Z,81.20
2018-02-12T04:13:02.456Z,81.20
2018-02-12T04:14:04.315Z,81.10
2018-02-12T04:15:18.450Z,81.38
2018-02-12T04:16:20.300Z,81.48
2018-02-12T04:17:22.149Z,81.20
2018-02-12T04:18:24.000Z,81.20
2018-02-12T04:19:25.785Z,81.29
2018-02-12T04:20:27.578Z,81.38
2018-02-12T04:21:29.422Z,81.10
2018-02-12T04:22:31.274Z,81.20
2018-02-12T04:23:33.129Z,80.91
2018-02-12T04:24:47.310Z,80.82
2018-02-12T04:25:49.129Z,80.82
2018-02-12T04:26:50.997Z,81.01
2018-02-12T04:27:52.850Z,80.91
2018-02-12T04:28:54.634Z,81.01
2018-02-12T04:29:56.425Z,81.01
2018-02-12T04:30:58.292Z,81.01
2018-02-12T04:32:00.141Z,80.63
2018-02-12T04:33:01.995Z,81.48
2018-02-12T04:34:16.184Z,81.29
2018-02-12T04:35:18.052Z,81.29
2018-02-12T04:36:19.901Z,81.20
2018-02-12T04:37:21.753Z,81.67
2018-02-12T04:38:23.541Z,81.57
2018-02-12T04:39:25.348Z,81.67
2018-02-12T04:40:27.219Z,81.57
2018-02-12T04:41:29.070Z,81.57
2018-02-12T04:42:30.922Z,81.67
2018-02-12T04:43:45.093Z,81.57
2018-02-12T04:44:46.958Z,81.76
2018-02-12T04:45:48.815Z,81.38
2018-02-12T04:46:50.692Z,81.20
2018-02-12T04:47:52.495Z,81.29
2018-02-12T04:48:54.286Z,81.20
2018-02-12T04:49:56.151Z,81.20
2018-02-12T04:50:58.001Z,81.20
2018-02-12T04:51:59.854Z,81.20
2018-02-12T04:53:13.994Z,81.20
2018-02-12T04:54:15.863Z,81.29
2018-02-12T04:55:17.708Z,81.29
2018-02-12T04:56:19.561Z,81.57
2018-02-12T04:57:21.347Z,81.20
2018-02-12T04:58:23.133Z,80.63
2018-02-12T04:59:24.988Z,80.91
2018-02-12T05:00:26.855Z,80.82
2018-02-12T05:01:28.713Z,80.91
2018-02-12T05:02:42.847Z,81.38
2018-02-12T05:03:44.702Z,80.91
2018-02-12T05:04:46.550Z,80.91
2018-02-12T05:05:48.402Z,81.01
2018-02-12T05:06:50.214Z,81.01
2018-02-12T05:07:52.006Z,80.82
2018-02-12T05:08:53.875Z,80.63
2018-02-12T05:09:55.724Z,80.91
2018-02-12T05:10:57.576Z,80.49
2018-02-12T05:12:11.691Z,80.63
2018-02-12T05:13:13.545Z,80.58
2018-02-12T05:14:15.398Z,80.30
2018-02-12T05:15:17.254Z,80.77
2018-02-12T05:16:19.039Z,80.63
2018-02-12T05:17:20.822Z,80.58
2018-02-12T05:18:22.669Z,80.63
2018-02-12T05:19:24.524Z,80.77
2018-02-12T05:20:26.399Z,80.34
2018-02-12T05:21:40.535Z,80.58
2018-02-12T05:22:42.387Z,80.63
2018-02-12T05:23:44.257Z,80.53
2018-02-12T05:24:46.127Z,80.63
2018-02-12T05:25:47.915Z,80.25
2018-02-12T05:26:49.699Z,80.25
2018-02-12T05:27:51.548Z,80.53
2018-02-12T05:28:53.405Z,80.72
2018-02-12T05:29:55.254Z,80.72
2018-02-12T05:31:09.391Z,80.15
2018-02-12T05:32:11.244Z,79.96
2018-02-12T05:33:13.097Z,80.15
2018-02-12T05:34:14.952Z,79.96
2018-02-12T05:35:16.735Z,79.96
2018-02-12T05:36:18.518Z,79.68
2018-02-12T05:37:20.372Z,79.58
2018-02-12T05:38:22.243Z,79.39
2018-02-12T05:39:24.098Z,79.68
2018-02-12T05:40:38.234Z,79.68
2018-02-12T05:41:40.086Z,79.68
2018-02-12T05:42:41.952Z,79.77
2018-02-12T05:43:43.808Z,79.68
2018-02-12T05:44:45.616Z,79.49
2018-02-12T05:45:47.401Z,79.68
2018-02-12T05:46:49.250Z,79.68
2018-02-12T05:47:51.101Z,79.68
2018-02-12T05:48:52.954Z,79.77
2018-02-12T05:50:07.093Z,79.68
2018-02-12T05:51:08.970Z,79.68
2018-02-12T05:52:10.839Z,79.58
2018-02-12T05:53:12.709Z,79.68
2018-02-12T05:54:14.492Z,79.49
2018-02-12T05:55:16.279Z,79.30
2018-02-12T05:56:18.130Z,80.06
2018-02-12T05:57:19.992Z,79.87
2018-02-12T05:58:21.866Z,80.15
2018-02-12T05:59:36.006Z,79.68
2018-02-12T06:00:37.866Z,79.96
2018-02-12T06:01:39.730Z,80.15
2018-02-12T06:02:41.586Z,80.15
2018-02-12T06:03:43.372Z,79.96
2018-02-12T06:04:45.158Z,80.15
2018-02-12T06:05:47.010Z,80.53
2018-02-12T06:06:48.864Z,80.53
2018-02-12T06:07:50.726Z,80.63
2018-02-12T06:09:04.872Z,80.72
2018-02-12T06:10:06.780Z,80.34
2018-02-12T06:11:08.676Z,80.63
2018-02-12T06:12:10.531Z,80.44
2018-02-12T06:13:12.338Z,80.44
2018-02-12T06:14:14.130Z,80.25
2018-02-12T06:15:16.003Z,80.25
2018-02-12T06:16:17.856Z,80.25
2018-02-12T06:17:19.715Z,80.63
2018-02-12T06:18:33.840Z,80.72
2018-02-12T06:19:35.711Z,80.44
2018-02-12T06:20:37.573Z,80.82
2018-02-12T06:21:39.442Z,80.44
2018-02-12T06:22:41.240Z,80.63
2018-02-12T06:23:43.049Z,81.01
2018-02-12T06:24:44.902Z,80.82
2018-02-12T06:25:46.759Z,80.72
2018-02-12T06:26:48.612Z,81.10
2018-02-12T06:28:02.739Z,80.82
2018-02-12T06:29:04.611Z,80.82
2018-02-12T06:30:06.464Z,81.20
2018-02-12T06:31:08.318Z,81.01
2018-02-12T06:32:10.125Z,80.91
2018-02-12T06:33:11.929Z,81.10
2018-02-12T06:34:13.806Z,81.29
2018-02-12T06:35:15.681Z,81.38
2018-02-12T06:36:17.540Z,81.48
2018-02-12T06:37:31.664Z,81.95
2018-02-12T06:38:33.536Z,81.86
2018-02-12T06:39:35.394Z,82.05
2018-02-12T06:40:37.272Z,82.24
2018-02-12T06:41:39.078Z,81.86
2018-02-12T06:42:40.872Z,82.14
2018-02-12T06:43:42.725Z,82.14
2018-02-12T06:44:44.576Z,82.18
2018-02-12T06:45:46.436Z,81.86
2018-02-12T06:47:00.557Z,82.09
2018-02-12T06:48:02.422Z,82.37
2018-02-12T06:49:04.290Z,81.90
2018-02-12T06:50:06.146Z,81.99
2018-02-12T06:51:07.937Z,81.71
2018-02-12T06:52:09.727Z,81.33
2018-02-12T06:53:11.585Z,81.62
2018-02-12T06:54:13.439Z,81.52
2018-02-12T06:55:15.297Z,81.62
2018-02-12T06:56:29.442Z,81.71
2018-02-12T06:57:31.315Z,81.62
2018-02-12T06:58:33.168Z,81.43
2018-02-12T06:59:35.025Z,81.62
2018-02-12T07:00:36.818Z,81.71
2018-02-12T07:01:38.627Z,81.33
2018-02-12T07:02:40.495Z,81.33
2018-02-12T07:03:42.365Z,80.95
2018-02-12T07:04:44.226Z,81.33
2018-02-12T07:05:58.361Z,81.24
2018-02-12T07:07:00.224Z,81.71
2018-02-12T07:08:02.081Z,81.62
2018-02-12T07:09:03.951Z,81.62
2018-02-12T07:10:05.742Z,81.62
2018-02-12T07:11:07.536Z,81.52
2018-02-12T07:12:09.394Z,81.52
2018-02-12T07:13:11.249Z,81.62
2018-02-12T07:14:13.110Z,81.62
2018-02-12T07:15:27.254Z,81.52
2018-02-12T07:16:29.130Z,81.52
2018-02-12T07:17:30.988Z,81.52
2018-02-12T07:18:32.857Z,81.71
2018-02-12T07:19:34.667Z,81.62
2018-02-12T07:20:36.460Z,81.52
2018-02-12T07:21:38.334Z,81.05
2018-02-12T07:22:40.195Z,80.99
2018-02-12T07:23:42.057Z,80.99
2018-02-12T07:24:56.184Z,81.18
2018-02-12T07:25:58.064Z,80.62
2018-02-12T07:26:59.941Z,80.52
2018-02-12T07:28:01.822Z,80.90
2018-02-12T07:29:03.621Z,80.71
2018-02-12T07:30:05.443Z,80.43
2018-02-12T07:31:07.314Z,80.14
2018-02-12T07:32:09.176Z,79.95
2018-02-12T07:33:11.035Z,79.76
2018-02-12T07:34:25.212Z,79.38
2018-02-12T07:35:27.072Z,79.00
2018-02-12T07:36:28.949Z,79.61
2018-02-12T07:37:30.826Z,78.95
2018-02-12T07:38:32.645Z,79.23
2018-02-12T07:39:34.458Z,78.56
2018-02-12T07:40:36.333Z,78.38
2018-02-12T07:41:38.298Z,78.00
2018-02-12T07:42:40.183Z,77.90
2018-02-12T07:43:54.324Z,78.00
2018-02-12T07:44:56.187Z,78.00
2018-02-12T07:45:58.045Z,77.90
2018-02-12T07:46:59.955Z,77.90
2018-02-12T07:48:01.732Z,77.43
2018-02-12T07:49:03.540Z,77.14
2018-02-12T07:50:05.399Z,76.86
2018-02-12T07:51:07.260Z,76.86
2018-02-12T07:52:09.115Z,76.29
2018-02-12T07:53:23.245Z,76.57
2018-02-12T07:54:25.103Z,76.10
2018-02-12T07:55:26.958Z,76.10
2018-02-12T07:56:28.819Z,75.72
2018-02-12T07:57:30.670Z,75.34
2018-02-12T07:58:32.466Z,75.05
2018-02-12T07:59:34.345Z,74.87
2018-02-12T08:00:36.222Z,75.05
2018-02-12T08:01:38.082Z,74.77
2018-02-12T08:02:52.275Z,75.05
2018-02-12T08:03:54.133Z,74.77
2018-02-12T08:04:55.996Z,74.11
2018-02-12T08:05:57.877Z,73.25
2018-02-12T08:06:59.713Z,73.54
2018-02-12T08:08:01.488Z,73.82
2018-02-12T08:09:03.342Z,73.72
2018-02-12T08:10:05.204Z,73.44
2018-02-12T08:11:07.088Z,73.16
2018-02-12T08:12:21.282Z,72.97
2018-02-12T08:13:23.131Z,72.44
2018-02-12T08:14:24.985Z,71.67
2018-02-12T08:15:26.849Z,71.67
2018-02-12T08:16:28.635Z,71.58
2018-02-12T08:17:30.438Z,71.39
2018-02-12T08:18:32.313Z,71.11
2018-02-12T08:19:34.175Z,71.20
2018-02-12T08:20:36.026Z,71.11
2018-02-12T08:21:50.153Z,71.11
2018-02-12T08:22:52.031Z,70.54
2018-02-12T08:23:53.908Z,70.35
2018-02-12T08:24:55.762Z,70.73
2018-02-12T08:25:57.552Z,70.54
2018-02-12T08:26:59.349Z,70.25
2018-02-12T08:28:01.207Z,69.87
2018-02-12T08:29:03.072Z,70.15
2018-02-12T08:30:04.926Z,70.44
2018-02-12T08:31:19.071Z,70.44
2018-02-12T08:32:20.924Z,70.35
2018-02-12T08:33:22.787Z,70.06
2018-02-12T08:34:24.659Z,69.96
2018-02-12T08:35:26.497Z,70.35
2018-02-12T08:36:28.254Z,70.44
2018-02-12T08:37:30.126Z,70.73
2018-02-12T08:38:31.989Z,70.82
2018-02-12T08:39:33.856Z,70.82
2018-02-12T08:40:47.995Z,70.63
2018-02-12T08:41:49.852Z,71.48
2018-02-12T08:42:51.709Z,71.39
2018-02-12T08:43:53.569Z,70.98
2018-02-12T08:44:55.362Z,71.64
2018-02-12T08:45:57.159Z,71.92
2018-02-12T08:46:59.037Z,72.68
2018-02-12T08:48:00.894Z,73.07
2018-02-12T08:49:02.774Z,73.72
2018-02-12T08:50:16.922Z,73.25
2018-02-12T08:51:18.794Z,73.60
2018-02-12T08:52:20.649Z,73.88
2018-02-12T08:53:22.515Z,74.77
2018-02-12T08:54:24.300Z,74.58
2018-02-12T08:55:26.098Z,74.58
2018-02-12T08:56:27.979Z,74.68
2018-02-12T08:57:29.854Z,74.01
2018-02-12T08:58:31.718Z,74.20
2018-02-12T08:59:45.864Z,74.01
2018-02-12T09:00:47.738Z,72.97
2018-02-12T09:01:49.594Z,72.59
2018-02-12T09:02:51.450Z,72.78
2018-02-12T09:03:53.249Z,72.40
2018-02-12T09:04:55.039Z,72.63
2018-02-12T09:05:56.895Z,72.06
2018-02-12T09:06:58.754Z,71.96
2018-02-12T09:08:00.612Z,72.06
2018-02-12T09:09:14.759Z,72.15
2018-02-12T09:10:16.641Z,71.67
2018-02-12T09:11:18.520Z,71.48
2018-02-12T09:12:20.392Z,70.92
2018-02-12T09:13:22.192Z,70.63
2018-02-12T09:14:24.004Z,70.35
2018-02-12T09:15:25.861Z,70.73
2018-02-12T09:16:27.764Z,70.44
2018-02-12T09:17:29.594Z,70.25
2018-02-12T09:18:43.720Z,69.78
2018-02-12T09:19:45.598Z,69.78
2018-02-12T09:20:47.525Z,69.68
2018-02-12T09:21:49.329Z,68.83
2018-02-12T09:22:51.124Z,68.54
2018-02-12T09:23:52.920Z,68.44
2018-02-12T09:24:54.779Z,69.02
2018-02-12T09:25:56.643Z,68.79
2018-02-12T09:26:58.494Z,69.36
2018-02-12T09:28:12.622Z,70.21
2018-02-12T09:29:14.530Z,70.31
2018-02-12T09:30:16.334Z,70.78
2018-02-12T09:31:18.196Z,70.59
2018-02-12T09:32:20.007Z,71.83
2018-02-12T09:33:21.805Z,71.26
2018-02-12T09:34:23.657Z,71.55
2018-02-12T09:35:25.516Z,71.45
2018-02-12T09:36:27.401Z,71.36
2018-02-12T09:37:41.549Z,71.17
2018-02-12T09:38:43.405Z,71.26
2018-02-12T09:39:45.275Z,71.45
2018-02-12T09:40:47.135Z,71.26
2018-02-12T09:41:48.933Z,70.88
2018-02-12T09:42:50.724Z,71.07
2018-02-12T09:43:52.603Z,70.31
2018-02-12T09:44:54.467Z,70.06
2018-02-12T09:45:56.339Z,69.68
2018-02-12T09:47:10.469Z,69.21
2018-02-12T09:48:12.349Z,68.07
2018-02-12T09:49:14.227Z,67.21
2018-02-12T09:50:16.108Z,67.34
2018-02-12T09:51:17.908Z,65.79
2018-02-12T09:52:19.695Z,66.20
2018-02-12T09:53:21.555Z,65.92
2018-02-12T09:54:23.431Z,65.54
2018-02-12T09:55:25.286Z,65.63
2018-02-12T09:56:39.412Z,65.60
2018-02-12T09:57:41.272Z,65.03
2018-02-12T09:58:43.121Z,65.41
2018-02-12T09:59:44.985Z,65.60
2018-02-12T10:00:46.804Z,65.98
2018-02-12T10:01:48.619Z,66.01
2018-02-12T10:02:50.476Z,65.82
2018-02-12T10:03:52.328Z,65.63
2018-02-12T10:04:54.190Z,64.87
2018-02-12T10:06:08.387Z,64.05
2018-02-12T10:07:10.268Z,63.07
2018-02-12T10:08:12.147Z,63.35
2018-02-12T10:09:14.027Z,63.35
2018-02-12T10:10:15.846Z,63.54
2018-02-12T10:11:17.655Z,63.35
2018-02-12T10:12:19.517Z,63.73
2018-02-12T10:13:21.382Z,63.83
2018-02-12T10:14:23.242Z,63.76
2018-02-12T10:15:37.418Z,63.39
2018-02-12T10:16:39.271Z,63.20
2018-02-12T10:17:41.127Z,62.15
2018-02-12T10:18:42.990Z,61.77
2018-02-12T10:19:44.809Z,62.78
2018-02-12T10:20:46.618Z,62.50
2018-02-12T10:21:48.474Z,63.07
2018-02-12T10:22:50.332Z,63.73
2018-02-12T10:23:52.193Z,63.17
2018-02-12T10:25:06.342Z,63.70
2018-02-12T10:26:08.221Z,63.32
2018-02-12T10:27:10.078Z,63.79
2018-02-12T10:28:12.167Z,64.46
2018-02-12T10:29:14.232Z,63.98
2018-02-12T10:30:16.035Z,63.60
2018-02-12T10:31:17.896Z,63.79
2018-02-12T10:32:19.768Z,63.79
2018-02-12T10:33:21.634Z,63.79
2018-02-12T10:34:35.790Z,63.79
2018-02-12T10:35:37.667Z,64.37
2018-02-12T10:36:39.528Z,64.75
2018-02-12T10:37:41.406Z,64.65
2018-02-12T10:38:43.222Z,65.22
2018-02-12T10:39:45.041Z,65.22
2018-02-12T10:40:46.911Z,65.22
2018-02-12T10:41:48.769Z,65.56
2018-02-12T10:42:50.648Z,65.19
2018-02-12T10:44:04.799Z,66.04
2018-02-12T10:45:06.675Z,65.95
2018-02-12T10:46:08.538Z,66.61
2018-02-12T10:47:10.416Z,66.89
2018-02-12T10:48:12.209Z,66.52
2018-02-12T10:49:14.001Z,67.27
2018-02-12T10:50:15.855Z,67.37
2018-02-12T10:51:17.712Z,68.04
2018-02-12T10:52:19.678Z,68.38
2018-02-12T10:53:33.766Z,68.66
2018-02-12T10:54:35.647Z,68.95
2018-02-12T10:55:37.521Z,69.33
2018-02-12T10:56:39.415Z,69.42
2018-02-12T10:57:41.188Z,69.61
2018-02-12T10:58:42.988Z,70.18
2018-02-12T10:59:44.861Z,69.90
2018-02-12T11:00:46.720Z,69.74
2018-02-12T11:01:48.601Z,69.55
2018-02-12T11:03:02.748Z,69.27
2018-02-12T11:04:04.622Z,68.79
2018-02-12T11:05:06.482Z,67.69
2018-02-12T11:06:08.360Z,67.21
2018-02-12T11:07:10.171Z,66.74
2018-02-12T11:08:11.971Z,66.55
2018-02-12T11:09:13.845Z,66.67
2018-02-12T11:10:15.705Z,65.73
2018-02-12T11:11:17.587Z,65.25
2018-02-12T11:12:31.736Z,64.53
2018-02-12T11:13:33.591Z,64.43
2018-02-12T11:14:35.451Z,63.76
2018-02-12T11:15:37.329Z,63.57
2018-02-12T11:16:39.138Z,63.39
2018-02-12T11:17:40.935Z,63.01
2018-02-12T11:18:42.790Z,63.01
2018-02-12T11:19:44.649Z,63.57
2018-02-12T11:20:46.470Z,63.20
2018-02-12T11:22:00.650Z,63.01
2018-02-12T11:23:02.511Z,63.10
2018-02-12T11:24:04.385Z,62.81
2018-02-12T11:25:06.242Z,61.96
2018-02-12T11:26:08.038Z,62.05
2018-02-12T11:27:09.840Z,62.34
2018-02-12T11:28:11.714Z,61.52
2018-02-12T11:29:13.609Z,61.61
2018-02-12T11:30:15.441Z,61.42
2018-02-12T11:31:29.587Z,60.66
2018-02-12T11:32:31.451Z,60.94
2018-02-12T11:33:33.357Z,60.57
2018-02-12T11:34:35.237Z,60.66
2018-02-12T11:35:37.005Z,60.28
2018-02-12T11:36:38.803Z,59.33
2018-02-12T11:37:40.656Z,59.14
2018-02-12T11:38:42.527Z,59.42
2018-02-12T11:39:44.395Z,61.52
2018-02-12T11:40:58.575Z,59.90
2018-02-12T11:42:00.432Z,57.81
2018-02-12T11:43:02.287Z,57.40
2018-02-12T11:44:04.143Z,58.44
2018-02-12T11:45:05.945Z,58.44
2018-02-12T11:46:07.742Z,58.83
2018-02-12T11:47:09.614Z,58.09
2018-02-12T11:48:11.478Z,57.11
2018-02-12T11:49:13.361Z,58.06
2018-02-12T11:50:27.507Z,58.98
2018-02-12T11:51:29.363Z,59.17
2018-02-12T11:52:31.223Z,59.36
2018-02-12T11:53:33.103Z,60.31
2018-02-12T11:54:34.922Z,60.22
2018-02-12T11:55:36.736Z,60.41
2018-02-12T11:56:38.590Z,60.98
2018-02-12T11:57:40.448Z,61.17
2018-02-12T11:58:42.315Z,60.22
2018-02-12T11:59:56.465Z,60.88
2018-02-12T12:00:58.460Z,60.69
2018-02-12T12:02:00.320Z,60.88
2018-02-12T12:03:02.203Z,60.50
2018-02-12T12:04:03.998Z,59.17
2018-02-12T12:05:05.792Z,58.22
2018-02-12T12:06:07.648Z,57.84
2018-02-12T12:07:09.505Z,57.81
2018-02-12T12:08:11.367Z,58.86
2018-02-12T12:09:25.514Z,59.27
2018-02-12T12:10:27.377Z,59.17
2018-02-12T12:11:29.226Z,59.17
2018-02-12T12:12:31.087Z,59.08
2018-02-12T12:13:32.900Z,59.74
2018-02-12T12:14:34.702Z,61.26
2018-02-12T12:15:36.583Z,62.88
2018-02-12T12:16:38.455Z,63.35
2018-02-12T12:17:40.321Z,64.11
2018-02-12T12:18:54.464Z,64.27
2018-02-12T12:19:56.329Z,65.41
2018-02-12T12:20:58.209Z,65.98
2018-02-12T12:22:00.086Z,66.17
2018-02-12T12:23:01.904Z,66.64
2018-02-12T12:24:03.699Z,66.83
2018-02-12T12:25:05.587Z,66.46
2018-02-12T12:26:07.440Z,65.98
2018-02-12T12:27:09.301Z,65.98
2018-02-12T12:28:23.440Z,66.64
2018-02-12T12:29:25.302Z,66.93
2018-02-12T12:30:27.181Z,66.96
2018-02-12T12:31:29.061Z,66.30
2018-02-12T12:32:30.880Z,65.54
2018-02-12T12:33:32.706Z,65.54
2018-02-12T12:34:34.581Z,64.87
2018-02-12T12:35:36.547Z,64.69
2018-02-12T12:36:38.496Z,64.11
2018-02-12T12:37:52.622Z,64.30
2018-02-12T12:38:54.513Z,64.59
2018-02-12T12:39:56.372Z,64.59
2018-02-12T12:40:58.247Z,64.69
2018-02-12T12:42:00.064Z,63.35
2018-02-12T12:43:01.860Z,62.91
2018-02-12T12:44:03.741Z,62.72
2018-02-12T12:45:05.622Z,62.81
2018-02-12T12:46:07.510Z,62.05
2018-02-12T12:47:22.211Z,61.20
2018-02-12T12:48:23.483Z,61.20
2018-02-12T12:49:25.359Z,61.39
2018-02-12T12:50:27.216Z,61.26
2018-02-12T12:51:29.018Z,61.36
2018-02-12T12:52:30.808Z,61.74
2018-02-12T12:53:32.676Z,61.74
2018-02-12T12:54:34.587Z,61.93
2018-02-12T12:55:36.439Z,62.02
2018-02-12T12:56:50.570Z,61.45
2018-02-12T12:57:52.444Z,61.55
2018-02-12T12:58:54.307Z,60.79
2018-02-12T12:59:56.166Z,59.65
2018-02-12T13:00:57.957Z,57.56
2018-02-12T13:01:59.755Z,55.66
2018-02-12T13:03:01.615Z,54.90
2018-02-12T13:04:03.519Z,55.09
2018-02-12T13:05:05.379Z,56.70
2018-02-12T13:06:19.636Z,57.56
2018-02-12T13:07:21.500Z,57.84
2018-02-12T13:08:23.358Z,56.80
2018-02-12T13:09:25.223Z,55.66
2018-02-12T13:10:27.032Z,54.90
2018-02-12T13:11:28.829Z,53.76
2018-02-12T13:12:30.706Z,53.19
2018-02-12T13:13:32.502Z,52.81
2018-02-12T13:14:34.339Z,52.81
2018-02-12T13:15:48.463Z,53.09
2018-02-12T13:16:50.315Z,52.43
2018-02-12T13:17:52.178Z,52.50
2018-02-12T13:18:54.068Z,52.50
2018-02-12T13:19:55.870Z,52.97
2018-02-12T13:20:57.671Z,53.73
2018-02-12T13:21:59.526Z,54.02
2018-02-12T13:23:01.385Z,55.16
2018-02-12T13:24:03.259Z,56.17
2018-02-12T13:25:17.436Z,57.15
2018-02-12T13:26:19.293Z,57.31
2018-02-12T13:27:21.168Z,57.24
2018-02-12T13:28:23.045Z,57.72
2018-02-12T13:29:24.861Z,57.91
2018-02-12T13:30:26.662Z,58.10
2018-02-12T13:31:28.540Z,58.20
2018-02-12T13:32:30.410Z,58.39
2018-02-12T13:33:32.272Z,58.39